Time;durP1;ratioP1;P1;durP2;ratioP2;P2;SDS_P1;SDS_P2;PMS_P1;PMS_P2;Temp;Humidity;BMP_temperature;BMP_pressure;BME280_temperature;BME280_humidity;BME280_pressure;Samples;Min_cycle;Max_cycle;Signal;HPM_P1;HPM_P2
2024/03/17 00:01:56;;;;;;;9.18;1.95;;;;;;;;;;4688866;30;20065;-82
2024/03/17 00:04:24;;;;;;;6.35;1.83;;;;;;;;;;4703062;30;20069;-82
2024/03/17 00:06:52;;;;;;;4.45;1.63;;;;;;;;;;4703354;30;20053;-81
2024/03/17 00:09:20;;;;;;;7.18;1.92;;;;;;;;;;4703116;30;20061;-80
2024/03/17 00:11:48;;;;;;;6.00;1.95;;;;;;;;;;4710355;30;20075;-84
2024/03/17 00:14:18;;;;;;;5.85;1.50;;;;;;;;;;4703364;30;20505;-82
2024/03/17 00:16:46;;;;;;;3.92;1.85;;;;;;;;;;4702999;30;20083;-82
2024/03/17 00:19:16;;;;;;;6.32;1.90;;;;;;;;;;4689031;30;20061;-85
2024/03/17 00:21:45;;;;;;;4.75;1.75;;;;;;;;;;4702689;30;20065;-81
2024/03/17 00:24:13;;;;;;;5.43;1.67;;;;;;;;;;4702881;30;20057;-85
2024/03/17 00:26:42;;;;;;;5.13;1.80;;;;;;;;;;4702820;30;20064;-81
2024/03/17 00:29:11;;;;;;;13.63;2.53;;;;;;;;;;4702829;30;20425;-81
2024/03/17 00:31:39;;;;;;;9.00;4.35;;;;;;;;;;4702531;30;20382;-83
2024/03/17 00:34:07;;;;;;;11.65;4.90;;;;;;;;;;4703047;30;20064;-81
2024/03/17 00:36:36;;;;;;;11.20;3.78;;;;;;;;;;4702116;30;20075;-81
2024/03/17 00:39:04;;;;;;;9.30;2.90;;;;;;;;;;4702809;30;20056;-82
2024/03/17 00:41:33;;;;;;;7.93;2.60;;;;;;;;;;4708377;30;20059;-80
2024/03/17 00:44:02;;;;;;;8.20;2.78;;;;;;;;;;4716893;30;20045;-80
2024/03/17 00:46:30;;;;;;;9.25;2.30;;;;;;;;;;4717035;30;20061;-81
2024/03/17 00:49:00;;;;;;;7.47;2.15;;;;;;;;;;4716972;30;20072;-81
2024/03/17 00:51:31;;;;;;;5.70;2.63;;;;;;;;;;4717147;30;20433;-81
2024/03/17 00:54:00;;;;;;;7.82;2.00;;;;;;;;;;4701641;30;20413;-81
2024/03/17 00:56:28;;;;;;;5.03;1.80;;;;;;;;;;4702155;30;20548;-82
2024/03/17 00:58:57;;;;;;;4.35;1.75;;;;;;;;;;4702269;30;20066;-82
2024/03/17 01:01:25;;;;;;;8.95;2.50;;;;;;;;;;4702161;30;20061;-80
2024/03/17 01:03:55;;;;;;;4.15;1.83;;;;;;;;;;4716535;30;20069;-84
2024/03/17 01:06:23;;;;;;;7.35;1.80;;;;;;;;;;4716262;30;20072;-80
2024/03/17 01:08:52;;;;;;;3.90;1.95;;;;;;;;;;4716337;30;20069;-80
2024/03/17 01:11:20;;;;;;;5.40;1.80;;;;;;;;;;4719039;30;20060;-81
2024/03/17 01:13:48;;;;;;;7.95;1.98;;;;;;;;;;4719537;30;20060;-81
2024/03/17 01:16:16;;;;;;;8.52;2.03;;;;;;;;;;4719494;30;20061;-83
2024/03/17 01:18:45;;;;;;;7.75;1.75;;;;;;;;;;4719349;30;20068;-80
2024/03/17 01:21:13;;;;;;;5.15;1.80;;;;;;;;;;4719167;30;20060;-82
2024/03/17 01:23:41;;;;;;;5.80;2.00;;;;;;;;;;4719143;30;20068;-81
2024/03/17 01:26:10;;;;;;;5.03;1.40;;;;;;;;;;4718897;30;20068;-84
2024/03/17 01:28:39;;;;;;;4.00;1.50;;;;;;;;;;4718880;30;20064;-80
2024/03/17 01:31:08;;;;;;;4.55;1.60;;;;;;;;;;4718970;30;20064;-80
2024/03/17 01:33:37;;;;;;;7.70;2.22;;;;;;;;;;4718461;30;20060;-81
2024/03/17 01:36:05;;;;;;;5.85;1.58;;;;;;;;;;4719056;30;20072;-83
2024/03/17 01:38:33;;;;;;;7.82;1.80;;;;;;;;;;4719332;30;20048;-82
2024/03/17 01:41:02;;;;;;;5.70;1.70;;;;;;;;;;4718976;30;20044;-81
2024/03/17 01:43:31;;;;;;;7.03;1.83;;;;;;;;;;4718897;30;20413;-80
2024/03/17 01:46:01;;;;;;;10.05;2.03;;;;;;;;;;4718827;30;20504;-80
2024/03/17 01:48:29;;;;;;;6.40;2.17;;;;;;;;;;4718564;30;20060;-79
2024/03/17 01:50:58;;;;;;;6.25;1.50;;;;;;;;;;4718820;30;20519;-83
2024/03/17 01:53:28;;;;;;;4.93;1.85;;;;;;;;;;4718998;30;20072;-81
2024/03/17 01:55:59;;;;;;;5.55;1.73;;;;;;;;;;4718733;30;20052;-80
2024/03/17 01:58:30;;;;;;;8.32;1.70;;;;;;;;;;4718769;30;20056;-83
2024/03/17 02:00:59;;;;;;;5.25;1.88;;;;;;;;;;4718257;30;20061;-83
2024/03/17 02:03:27;;;;;;;5.93;1.90;;;;;;;;;;4718303;30;20057;-81
2024/03/17 02:05:55;;;;;;;3.10;1.60;;;;;;;;;;4723643;30;20066;-83
2024/03/17 02:08:24;;;;;;;3.75;1.75;;;;;;;;;;4735662;30;20059;-83
2024/03/17 02:10:56;;;;;;;5.80;2.78;;;;;;;;;;4731162;30;20060;-81
2024/03/17 02:13:25;;;;;;;3.75;1.55;;;;;;;;;;4717646;30;20061;-80
2024/03/17 02:15:53;;;;;;;5.28;2.13;;;;;;;;;;4720822;30;20053;-82
2024/03/17 02:18:21;;;;;;;5.32;1.80;;;;;;;;;;4719590;30;20057;-85
2024/03/17 02:20:57;;;;;;;8.02;1.70;;;;;;;;;;4720257;30;20074;-80
2024/03/17 02:23:27;;;;;;;3.08;1.63;;;;;;;;;;4719957;30;20072;-81
2024/03/17 02:25:55;;;;;;;7.88;1.77;;;;;;;;;;4720137;30;20075;-81
2024/03/17 02:28:24;;;;;;;7.07;2.22;;;;;;;;;;4719772;30;20521;-83
2024/03/17 02:30:52;;;;;;;4.45;1.55;;;;;;;;;;4719686;30;20071;-82
2024/03/17 02:33:22;;;;;;;8.57;1.70;;;;;;;;;;4719374;30;20057;-83
2024/03/17 02:35:51;;;;;;;3.97;1.63;;;;;;;;;;4717771;30;20067;-80
2024/03/17 02:39:33;;;;;;;8.38;1.60;;;;;;;;;;4718114;30;20496;-82
2024/03/17 02:41:08;;;;;;;6.28;1.50;;;;;;;;;;4717032;30;20056;-82
2024/03/17 02:43:37;;;;;;;4.22;1.90;;;;;;;;;;4717312;30;20065;-81
2024/03/17 02:46:05;;;;;;;7.78;1.80;;;;;;;;;;4718031;30;20067;-81
2024/03/17 02:48:33;;;;;;;5.15;1.52;;;;;;;;;;4717679;30;20065;-81
2024/03/17 02:51:01;;;;;;;3.50;1.45;;;;;;;;;;4718561;30;20060;-81
2024/03/17 02:53:29;;;;;;;4.40;1.70;;;;;;;;;;4719386;30;20079;-82
2024/03/17 02:55:57;;;;;;;4.93;1.70;;;;;;;;;;4719196;30;20087;-81
2024/03/17 02:58:26;;;;;;;3.70;1.92;;;;;;;;;;4720083;30;20076;-81
2024/03/17 03:00:54;;;;;;;5.15;1.52;;;;;;;;;;4719214;30;20068;-83
2024/03/17 03:03:23;;;;;;;5.68;1.58;;;;;;;;;;4719498;30;20059;-81
2024/03/17 03:05:52;;;;;;;5.00;1.30;;;;;;;;;;4718915;30;20064;-83
2024/03/17 03:08:20;;;;;;;3.38;1.30;;;;;;;;;;4719312;30;20501;-83
2024/03/17 03:10:48;;;;;;;3.13;1.13;;;;;;;;;;4719557;30;20450;-83
2024/03/17 03:13:17;;;;;;;2.33;1.33;;;;;;;;;;4719455;30;20071;-83
2024/03/17 03:15:50;;;;;;;4.15;1.10;;;;;;;;;;4719293;30;20048;-81
2024/03/17 03:18:19;;;;;;;2.85;1.00;;;;;;;;;;4719481;30;20056;-82
2024/03/17 03:20:53;;;;;;;3.53;0.68;;;;;;;;;;4719244;30;20057;-84
2024/03/17 03:23:22;;;;;;;4.70;1.17;;;;;;;;;;4719614;30;20055;-82
2024/03/17 03:25:56;;;;;;;5.60;0.95;;;;;;;;;;4719263;30;20068;-82
2024/03/17 03:28:26;;;;;;;3.45;1.15;;;;;;;;;;4719286;30;20052;-84
2024/03/17 03:30:54;;;;;;;3.95;1.30;;;;;;;;;;4719824;30;20389;-82
2024/03/17 03:33:23;;;;;;;2.42;0.80;;;;;;;;;;4719237;30;20060;-82
2024/03/17 03:35:52;;;;;;;4.68;1.02;;;;;;;;;;4719446;30;20045;-82
2024/03/17 03:38:21;;;;;;;4.97;1.17;;;;;;;;;;4718488;30;20064;-85
2024/03/17 03:40:50;;;;;;;1.48;0.60;;;;;;;;;;4719666;30;20045;-82
2024/03/17 03:43:18;;;;;;;1.95;0.47;;;;;;;;;;4719553;30;20057;-83
2024/03/17 03:45:46;;;;;;;2.17;0.40;;;;;;;;;;4729344;30;20060;-87
2024/03/17 03:48:14;;;;;;;3.75;0.60;;;;;;;;;;4737007;30;20056;-86
2024/03/17 03:50:43;;;;;;;4.45;0.50;;;;;;;;;;4736694;30;20057;-82
2024/03/17 03:53:11;;;;;;;2.13;0.38;;;;;;;;;;4736638;30;20068;-81
2024/03/17 03:55:40;;;;;;;2.80;0.98;;;;;;;;;;4736644;30;20428;-82
2024/03/17 03:58:08;;;;;;;4.10;0.80;;;;;;;;;;4736642;30;20059;-82
2024/03/17 04:00:39;;;;;;;4.35;0.65;;;;;;;;;;4736857;30;20060;-81
2024/03/17 04:03:07;;;;;;;6.57;1.05;;;;;;;;;;4737267;30;20056;-80
2024/03/17 04:05:35;;;;;;;3.22;0.70;;;;;;;;;;4736408;30;20052;-82
2024/03/17 04:08:04;;;;;;;5.00;0.93;;;;;;;;;;4736603;30;20523;-79
2024/03/17 04:10:33;;;;;;;3.75;0.73;;;;;;;;;;4736050;30;20063;-80
2024/03/17 04:13:02;;;;;;;2.90;0.93;;;;;;;;;;4736097;30;20071;-81
2024/03/17 04:15:31;;;;;;;3.80;0.70;;;;;;;;;;4736464;30;20048;-80
2024/03/17 04:17:59;;;;;;;5.22;1.10;;;;;;;;;;4736786;30;20059;-80
2024/03/17 04:20:27;;;;;;;2.15;0.70;;;;;;;;;;4736455;30;20060;-80
2024/03/17 04:22:55;;;;;;;2.17;0.88;;;;;;;;;;4735931;30;20064;-81
2024/03/17 04:25:23;;;;;;;3.28;0.85;;;;;;;;;;4736519;30;20063;-85
2024/03/17 04:27:53;;;;;;;4.80;0.73;;;;;;;;;;4736493;30;20398;-83
2024/03/17 04:30:21;;;;;;;6.43;1.48;;;;;;;;;;4738810;30;20060;-84
2024/03/17 04:32:51;;;;;;;4.57;1.10;;;;;;;;;;4739446;30;20060;-81
2024/03/17 04:35:20;;;;;;;2.22;0.77;;;;;;;;;;4738987;30;20060;-79
2024/03/17 04:37:48;;;;;;;4.90;0.70;;;;;;;;;;4739346;30;20060;-80
2024/03/17 04:40:16;;;;;;;3.42;0.70;;;;;;;;;;4740988;30;20064;-78
2024/03/17 04:42:44;;;;;;;3.63;0.90;;;;;;;;;;4740959;30;20083;-81
2024/03/17 04:45:13;;;;;;;3.40;0.65;;;;;;;;;;4740834;30;20060;-82
2024/03/17 04:47:41;;;;;;;2.70;0.90;;;;;;;;;;4739344;30;20079;-80
2024/03/17 04:50:12;;;;;;;1.42;0.70;;;;;;;;;;4752275;30;20456;-78
2024/03/17 04:52:41;;;;;;;1.70;0.57;;;;;;;;;;4755891;30;20058;-77
2024/03/17 04:55:09;;;;;;;4.82;0.50;;;;;;;;;;4752868;30;20044;-78
2024/03/17 04:57:37;;;;;;;2.38;0.55;;;;;;;;;;4753201;30;20067;-79
2024/03/17 05:00:09;;;;;;;2.20;0.70;;;;;;;;;;4743540;30;20405;-81
2024/03/17 05:02:37;;;;;;;2.80;0.80;;;;;;;;;;4740156;30;20059;-80
2024/03/17 05:05:08;;;;;;;4.80;0.70;;;;;;;;;;4738234;30;20075;-81
2024/03/17 05:07:37;;;;;;;3.25;0.65;;;;;;;;;;4739194;30;20063;-80
2024/03/17 05:10:06;;;;;;;2.05;0.68;;;;;;;;;;4738743;30;20059;-81
2024/03/17 05:12:35;;;;;;;1.60;0.55;;;;;;;;;;4738680;30;20475;-81
2024/03/17 05:15:05;;;;;;;4.05;0.70;;;;;;;;;;4738225;30;20067;-80
2024/03/17 05:17:33;;;;;;;5.57;0.60;;;;;;;;;;4737990;30;20075;-79
2024/03/17 05:20:02;;;;;;;0.90;0.40;;;;;;;;;;4738834;30;20067;-81
2024/03/17 05:22:30;;;;;;;1.48;0.40;;;;;;;;;;4738751;30;20523;-80
2024/03/17 05:24:58;;;;;;;6.18;0.50;;;;;;;;;;4738473;30;20071;-81
2024/03/17 05:27:26;;;;;;;6.57;0.93;;;;;;;;;;4739424;30;20059;-84
2024/03/17 05:29:54;;;;;;;2.75;0.77;;;;;;;;;;4738040;30;20064;-80
2024/03/17 05:32:23;;;;;;;2.90;0.60;;;;;;;;;;4738420;30;20056;-80
2024/03/17 05:34:51;;;;;;;4.75;0.63;;;;;;;;;;4738372;30;20088;-80
2024/03/17 05:37:19;;;;;;;2.20;0.70;;;;;;;;;;4738081;30;20064;-80
2024/03/17 05:39:47;;;;;;;4.85;0.90;;;;;;;;;;4738238;30;20064;-80
2024/03/17 05:42:15;;;;;;;4.65;0.43;;;;;;;;;;4738489;30;20508;-80
2024/03/17 05:44:49;;;;;;;3.08;0.60;;;;;;;;;;4737926;30;20064;-80
2024/03/17 05:47:19;;;;;;;4.60;0.70;;;;;;;;;;4738517;30;20067;-80
2024/03/17 05:49:48;;;;;;;3.72;0.73;;;;;;;;;;4738626;30;20405;-82
2024/03/17 05:52:16;;;;;;;1.05;0.63;;;;;;;;;;4724054;30;20060;-80
2024/03/17 05:54:44;;;;;;;1.50;0.73;;;;;;;;;;4738121;30;20060;-83
2024/03/17 05:57:16;;;;;;;4.72;0.90;;;;;;;;;;4737353;30;20508;-83
2024/03/17 05:59:44;;;;;;;1.27;0.52;;;;;;;;;;4738951;30;20088;-81
2024/03/17 06:02:12;;;;;;;4.95;0.70;;;;;;;;;;4728289;30;20566;-82
2024/03/17 06:04:41;;;;;;;1.77;0.68;;;;;;;;;;4714768;30;20056;-80
2024/03/17 06:07:09;;;;;;;6.55;0.70;;;;;;;;;;4728298;30;20060;-81
2024/03/17 06:09:37;;;;;;;6.05;0.80;;;;;;;;;;4725554;30;20060;-81
2024/03/17 06:12:06;;;;;;;5.28;0.73;;;;;;;;;;4720281;30;20497;-82
2024/03/17 06:14:34;;;;;;;3.72;0.73;;;;;;;;;;4720417;30;20508;-83
2024/03/17 06:17:02;;;;;;;2.83;0.63;;;;;;;;;;4720357;30;20057;-80
2024/03/17 06:19:31;;;;;;;2.35;0.70;;;;;;;;;;4719718;30;20060;-79
2024/03/17 06:21:59;;;;;;;7.65;1.20;;;;;;;;;;4720193;30;20064;-84
2024/03/17 06:24:29;;;;;;;6.00;0.70;;;;;;;;;;4720387;30;20076;-80
2024/03/17 06:26:57;;;;;;;8.85;1.20;;;;;;;;;;4720422;30;20062;-81
2024/03/17 06:29:25;;;;;;;4.72;0.82;;;;;;;;;;4719949;30;20477;-80
2024/03/17 06:31:54;;;;;;;4.78;0.85;;;;;;;;;;4719964;30;20057;-81
2024/03/17 06:34:22;;;;;;;6.00;0.73;;;;;;;;;;4720082;30;20053;-83
2024/03/17 06:36:51;;;;;;;2.47;0.75;;;;;;;;;;4724581;30;20068;-82
2024/03/17 06:39:21;;;;;;;2.88;0.93;;;;;;;;;;4751355;30;20071;-81
2024/03/17 06:41:49;;;;;;;3.35;1.40;;;;;;;;;;4737165;30;20060;-81
2024/03/17 06:44:17;;;;;;;2.42;0.95;;;;;;;;;;4722874;30;20064;-80
2024/03/17 06:46:46;;;;;;;5.10;0.90;;;;;;;;;;4736733;30;20064;-79
2024/03/17 06:49:15;;;;;;;3.25;0.70;;;;;;;;;;4736465;30;20075;-80
2024/03/17 06:51:44;;;;;;;2.78;0.70;;;;;;;;;;4736709;30;20067;-80
2024/03/17 06:54:12;;;;;;;3.60;0.93;;;;;;;;;;4737587;30;20045;-81
2024/03/17 06:56:41;;;;;;;4.63;0.52;;;;;;;;;;4736936;30;20492;-80
2024/03/17 06:59:09;;;;;;;3.20;0.80;;;;;;;;;;4737268;30;20060;-81
2024/03/17 07:01:37;;;;;;;3.58;0.93;;;;;;;;;;4737753;30;20071;-81
2024/03/17 07:04:07;;;;;;;3.03;1.05;;;;;;;;;;4738222;30;20064;-81
2024/03/17 07:06:35;;;;;;;6.45;0.98;;;;;;;;;;4738094;30;20067;-80
2024/03/17 07:09:03;;;;;;;7.85;1.00;;;;;;;;;;4737252;30;20067;-83
2024/03/17 07:11:31;;;;;;;2.80;0.70;;;;;;;;;;4737139;30;20060;-80
2024/03/17 07:13:59;;;;;;;8.32;1.02;;;;;;;;;;4736949;30;20071;-83
2024/03/17 07:16:28;;;;;;;2.80;1.00;;;;;;;;;;4736413;30;20060;-81
2024/03/17 07:18:59;;;;;;;3.97;0.60;;;;;;;;;;4737107;30;20497;-81
2024/03/17 07:21:27;;;;;;;1.83;0.90;;;;;;;;;;4725367;30;20063;-81
2024/03/17 07:23:55;;;;;;;3.75;0.98;;;;;;;;;;4740718;30;20093;-83
2024/03/17 07:26:24;;;;;;;3.65;0.98;;;;;;;;;;4737502;30;20055;-82
2024/03/17 07:28:52;;;;;;;4.05;0.80;;;;;;;;;;4738599;30;20055;-84
2024/03/17 07:31:21;;;;;;;5.78;0.90;;;;;;;;;;4737241;30;20052;-80
2024/03/17 07:33:49;;;;;;;4.18;1.00;;;;;;;;;;4737483;30;20067;-81
2024/03/17 07:36:17;;;;;;;6.57;0.88;;;;;;;;;;4736257;30;20060;-81
2024/03/17 07:38:46;;;;;;;2.17;0.85;;;;;;;;;;4736479;30;20059;-85
2024/03/17 07:41:14;;;;;;;9.65;1.27;;;;;;;;;;4737938;30;20059;-85
2024/03/17 07:43:42;;;;;;;1.92;0.75;;;;;;;;;;4737359;30;20056;-81
2024/03/17 07:46:12;;;;;;;4.43;1.20;;;;;;;;;;4736561;30;20416;-80
2024/03/17 07:48:41;;;;;;;4.95;1.13;;;;;;;;;;4736342;30;20502;-80
2024/03/17 07:51:16;;;;;;;2.65;0.77;;;;;;;;;;4736786;30;20052;-80
2024/03/17 07:53:47;;;;;;;7.70;1.08;;;;;;;;;;4736492;30;20056;-83
2024/03/17 07:56:16;;;;;;;7.63;0.80;;;;;;;;;;4736486;30;20508;-80
2024/03/17 07:58:47;;;;;;;4.00;0.77;;;;;;;;;;4736308;30;20055;-81
2024/03/17 08:01:16;;;;;;;1.40;0.70;;;;;;;;;;4736131;30;20060;-85
2024/03/17 08:03:55;;;;;;;2.08;0.85;;;;;;;;;;4738051;30;20512;-82
2024/03/17 08:06:24;;;;;;;5.00;1.10;;;;;;;;;;4740277;30;20055;-83
2024/03/17 08:08:54;;;;;;;1.67;0.82;;;;;;;;;;4740542;30;20044;-81
2024/03/17 08:11:23;;;;;;;3.35;1.05;;;;;;;;;;4740080;30;20071;-81
2024/03/17 08:13:51;;;;;;;2.22;0.73;;;;;;;;;;4739648;30;20060;-80
2024/03/17 08:16:19;;;;;;;1.23;0.43;;;;;;;;;;4738812;30;20068;-82
2024/03/17 08:18:47;;;;;;;0.98;0.32;;;;;;;;;;4739553;30;20071;-81
2024/03/17 08:21:15;;;;;;;1.92;0.43;;;;;;;;;;4739653;30;20064;-83
2024/03/17 08:23:46;;;;;;;1.65;0.30;;;;;;;;;;4740452;30;20049;-82
2024/03/17 08:26:15;;;;;;;;;;;;;;;;;;4740317;30;20051;-82
2024/03/17 08:28:43;;;;;;;2.90;0.40;;;;;;;;;;4739646;30;20267;-81
2024/03/17 08:31:11;;;;;;;3.40;0.43;;;;;;;;;;4739438;30;20052;-81
2024/03/17 08:33:40;;;;;;;0.60;0.13;;;;;;;;;;4739159;30;20057;-80
2024/03/17 08:36:09;;;;;;;0.17;0.10;;;;;;;;;;4739151;30;20064;-81
2024/03/17 08:38:38;;;;;;;2.13;0.10;;;;;;;;;;4739570;30;20048;-84
2024/03/17 08:41:10;;;;;;;1.27;0.20;;;;;;;;;;4739323;30;20063;-82
2024/03/17 08:43:38;;;;;;;0.25;0.10;;;;;;;;;;4739913;30;20051;-82
2024/03/17 08:46:08;;;;;;;0.68;0.10;;;;;;;;;;4725262;30;20488;-81
2024/03/17 08:48:39;;;;;;;0.50;0.20;;;;;;;;;;4739381;30;20424;-80
2024/03/17 08:51:08;;;;;;;1.25;0.28;;;;;;;;;;4739172;30;20064;-81
2024/03/17 08:53:38;;;;;;;0.93;0.10;;;;;;;;;;4738864;30;20063;-79
2024/03/17 08:56:06;;;;;;;0.70;0.10;;;;;;;;;;4739056;30;20063;-80
2024/03/17 08:58:35;;;;;;;0.25;0.13;;;;;;;;;;4738510;30;20072;-79
2024/03/17 09:01:07;;;;;;;1.35;0.10;;;;;;;;;;4739261;30;20069;-82
2024/03/17 09:03:36;;;;;;;1.77;0.10;;;;;;;;;;4736434;30;20059;-82
2024/03/17 09:06:04;;;;;;;0.40;0.20;;;;;;;;;;4738601;30;20129;-81
2024/03/17 09:08:33;;;;;;;0.80;0.20;;;;;;;;;;4738306;30;20060;-80
2024/03/17 09:11:02;;;;;;;2.00;0.20;;;;;;;;;;4738216;30;20060;-81
2024/03/17 09:13:30;;;;;;;0.90;0.32;;;;;;;;;;4738589;30;20064;-81
2024/03/17 09:16:00;;;;;;;0.68;0.10;;;;;;;;;;4738284;30;20060;-81
2024/03/17 09:18:29;;;;;;;3.03;0.20;;;;;;;;;;4738856;30;20063;-81
2024/03/17 09:21:01;;;;;;;0.17;0.10;;;;;;;;;;4738085;30;20505;-80
2024/03/17 09:23:29;;;;;;;;;;;;;;;;;;4738426;30;20075;-81
2024/03/17 09:26:16;;;;;;;0.77;0.20;;;;;;;;;;4738815;30;20358;-80
2024/03/17 09:28:44;;;;;;;0.22;0.13;;;;;;;;;;4738228;30;20063;-81
2024/03/17 09:31:13;;;;;;;1.30;0.10;;;;;;;;;;4737744;30;20074;-81
2024/03/17 09:33:41;;;;;;;4.22;0.20;;;;;;;;;;4738421;30;20052;-83
2024/03/17 09:36:14;;;;;;;1.63;0.10;;;;;;;;;;4738788;30;20061;-80
2024/03/17 09:38:44;;;;;;;0.35;0.15;;;;;;;;;;4724087;30;20073;-81
2024/03/17 09:41:27;;;;;;;0.60;0.17;;;;;;;;;;4738709;30;20056;-83
2024/03/17 09:43:57;;;;;;;0.60;0.20;;;;;;;;;;4737710;30;20060;-82
2024/03/17 09:46:27;;;;;;;0.60;0.30;;;;;;;;;;4724012;30;20059;-82
2024/03/17 09:48:57;;;;;;;1.10;0.30;;;;;;;;;;4737979;30;20068;-82
2024/03/17 09:51:26;;;;;;;0.50;0.20;;;;;;;;;;4738152;30;20071;-83
2024/03/17 09:53:54;;;;;;;1.80;0.20;;;;;;;;;;4738121;30;20077;-81
2024/03/17 09:56:23;;;;;;;1.05;0.20;;;;;;;;;;4737077;30;20056;-81
2024/03/17 09:58:52;;;;;;;1.63;0.25;;;;;;;;;;4737208;30;20059;-81
2024/03/17 10:01:20;;;;;;;1.80;0.40;;;;;;;;;;4737455;30;20520;-81
2024/03/17 10:03:54;;;;;;;1.45;0.38;;;;;;;;;;4737556;30;20518;-80
2024/03/17 10:06:24;;;;;;;1.30;0.32;;;;;;;;;;4737547;30;20059;-82
2024/03/17 10:08:54;;;;;;;1.30;0.32;;;;;;;;;;4737083;30;20056;-81
2024/03/17 10:11:25;;;;;;;0.40;0.20;;;;;;;;;;4737331;30;20075;-81
2024/03/17 10:14:04;;;;;;;2.47;0.52;;;;;;;;;;4737145;30;20060;-82
2024/03/17 10:16:35;;;;;;;5.35;0.55;;;;;;;;;;4722247;30;20056;-81
2024/03/17 10:19:10;;;;;;;0.88;0.32;;;;;;;;;;4723024;30;20064;-80
2024/03/17 10:21:50;;;;;;;0.90;0.30;;;;;;;;;;4737884;30;20056;-81
2024/03/17 10:24:28;;;;;;;3.13;0.40;;;;;;;;;;4737847;30;20040;-81
2024/03/17 10:26:59;;;;;;;0.98;0.30;;;;;;;;;;4736108;30;20527;-81
2024/03/17 10:29:38;;;;;;;2.40;0.50;;;;;;;;;;4737608;30;20063;-81
2024/03/17 10:32:18;;;;;;;3.85;0.70;;;;;;;;;;4736921;30;20090;-81
2024/03/17 10:34:47;;;;;;;3.38;0.80;;;;;;;;;;4736564;30;20059;-81
2024/03/17 10:37:22;;;;;;;2.03;0.50;;;;;;;;;;4737667;30;20067;-81
2024/03/17 10:39:55;;;;;;;2.88;0.65;;;;;;;;;;4736978;30;20077;-82
2024/03/17 10:42:35;;;;;;;1.25;0.43;;;;;;;;;;4737564;30;20052;-81
2024/03/17 10:45:09;;;;;;;0.70;0.40;;;;;;;;;;4737336;30;20052;-81
2024/03/17 10:47:39;;;;;;;2.30;0.60;;;;;;;;;;4736889;30;20067;-81
2024/03/17 10:50:16;;;;;;;2.53;0.40;;;;;;;;;;4736948;30;20075;-81
2024/03/17 10:52:49;;;;;;;1.88;0.60;;;;;;;;;;4736370;30;20071;-81
2024/03/17 10:55:26;;;;;;;1.25;0.88;;;;;;;;;;4737746;30;20400;-81
2024/03/17 10:57:57;;;;;;;1.95;0.30;;;;;;;;;;4737312;30;20052;-82
2024/03/17 11:00:29;;;;;;;1.73;0.70;;;;;;;;;;4737427;30;20051;-81
2024/03/17 11:02:58;;;;;;;4.10;0.68;;;;;;;;;;4736686;30;20500;-81
2024/03/17 11:05:33;;;;;;;1.48;0.70;;;;;;;;;;4722793;30;20064;-83
2024/03/17 11:08:03;;;;;;;3.35;0.60;;;;;;;;;;4737538;30;20044;-83
2024/03/17 11:10:37;;;;;;;1.70;0.50;;;;;;;;;;4736551;30;20064;-82
2024/03/17 11:13:22;;;;;;;3.25;0.80;;;;;;;;;;4734070;30;20063;-81
2024/03/17 11:15:51;;;;;;;;;;;;;;;;;;4731540;30;20079;-82
2024/03/17 11:18:22;;;;;;;4.80;0.50;;;;;;;;;;4743339;30;19926;-81
2024/03/17 11:21:11;;;;;;;1.70;0.60;;;;;;;;;;4747879;30;20062;-81
2024/03/17 11:23:40;;;;;;;1.02;0.40;;;;;;;;;;4748363;30;20059;-81
2024/03/17 11:26:08;;;;;;;2.35;0.20;;;;;;;;;;4747219;30;20055;-81
2024/03/17 11:28:46;;;;;;;2.03;0.30;;;;;;;;;;4737726;30;20052;-82
2024/03/17 11:31:37;;;;;;;0.57;0.40;;;;;;;;;;4737099;30;20059;-82
2024/03/17 11:34:07;;;;;;;1.02;0.60;;;;;;;;;;4736838;30;20049;-83
2024/03/17 11:36:39;;;;;;;1.00;0.40;;;;;;;;;;4737529;30;20480;-81
2024/03/17 11:39:19;;;;;;;;;;;;;;;;;;4737216;30;20063;-83
2024/03/17 11:41:50;;;;;;;0.90;0.30;;;;;;;;;;4727815;30;20390;-81
2024/03/17 11:44:21;;;;;;;1.58;0.45;;;;;;;;;;4734324;30;20083;-82
2024/03/17 11:46:58;;;;;;;0.80;0.30;;;;;;;;;;4737361;30;20060;-84
2024/03/17 11:49:33;;;;;;;0.80;0.40;;;;;;;;;;4736940;30;20055;-82
2024/03/17 11:52:03;;;;;;;2.10;0.60;;;;;;;;;;4736786;30;20055;-81
2024/03/17 11:54:34;;;;;;;1.33;0.55;;;;;;;;;;4736433;30;20063;-82
2024/03/17 11:57:07;;;;;;;2.35;0.80;;;;;;;;;;4733921;30;20061;-84
2024/03/17 11:59:36;;;;;;;1.00;0.50;;;;;;;;;;4736286;30;20044;-83
2024/03/17 12:02:26;;;;;;;2.17;1.05;;;;;;;;;;4736767;30;20063;-82
2024/03/17 12:04:58;;;;;;;1.23;0.43;;;;;;;;;;4728386;30;20052;-83
2024/03/17 12:07:27;;;;;;;;;;;;;;;;;;4736333;30;20056;-83
2024/03/17 12:09:57;;;;;;;9.10;3.55;;;;;;;;;;4737003;30;19956;-82
2024/03/17 12:12:37;;;;;;;2.05;1.30;;;;;;;;;;4736815;30;20055;-83
2024/03/17 12:15:33;;;;;;;2.70;1.08;;;;;;;;;;4736762;30;20056;-82
2024/03/17 12:18:03;;;;;;;1.65;0.77;;;;;;;;;;4716533;30;20064;-82
2024/03/17 12:20:31;;;;;;;3.67;0.73;;;;;;;;;;4750584;30;20067;-82
2024/03/17 12:23:01;;;;;;;1.85;0.47;;;;;;;;;;4719053;30;20513;-81
2024/03/17 12:25:30;;;;;;;2.97;1.00;;;;;;;;;;4735300;30;20044;-82
2024/03/17 12:27:58;;;;;;;1.70;0.90;;;;;;;;;;4736411;30;20045;-83
2024/03/17 12:30:26;;;;;;;1.25;0.60;;;;;;;;;;4736398;30;20056;-83
2024/03/17 12:32:56;;;;;;;4.13;0.82;;;;;;;;;;4722125;30;20492;-82
2024/03/17 12:35:24;;;;;;;1.88;1.00;;;;;;;;;;4736091;30;20052;-83
2024/03/17 12:37:52;;;;;;;4.90;2.63;;;;;;;;;;4736149;30;20059;-83
2024/03/17 12:40:23;;;;;;;6.22;3.22;;;;;;;;;;4736465;30;20048;-82
2024/03/17 12:42:51;;;;;;;3.88;1.95;;;;;;;;;;4736437;30;20052;-84
2024/03/17 12:45:21;;;;;;;5.20;1.77;;;;;;;;;;4736013;30;20052;-81
2024/03/17 12:47:52;;;;;;;2.63;1.20;;;;;;;;;;4736573;30;20056;-81
2024/03/17 12:50:21;;;;;;;3.75;1.95;;;;;;;;;;4737999;30;20358;-84
2024/03/17 12:52:54;;;;;;;2.65;1.13;;;;;;;;;;4739195;30;20055;-82
2024/03/17 13:01:06;;;;;;;2.22;1.00;;;;;;;;;;4739734;30;20484;-83
2024/03/17 13:03:36;;;;;;;1.17;0.68;;;;;;;;;;4739458;30;20063;-82
2024/03/17 13:06:09;;;;;;;2.88;0.60;;;;;;;;;;4738985;30;20052;-82
2024/03/17 13:08:39;;;;;;;1.70;0.90;;;;;;;;;;4734757;30;20041;-81
2024/03/17 13:11:09;;;;;;;1.80;0.65;;;;;;;;;;4739834;30;20056;-82
2024/03/17 13:13:38;;;;;;;2.85;0.90;;;;;;;;;;4739259;30;20059;-84
2024/03/17 13:16:07;;;;;;;2.67;0.80;;;;;;;;;;4738483;30;20519;-84
2024/03/17 13:18:35;;;;;;;2.20;0.63;;;;;;;;;;4737956;30;20435;-82
2024/03/17 13:21:03;;;;;;;2.83;0.73;;;;;;;;;;4738037;30;20040;-81
2024/03/17 13:23:32;;;;;;;2.10;0.77;;;;;;;;;;4737975;30;20048;-82
2024/03/17 13:26:00;;;;;;;0.85;0.45;;;;;;;;;;4739277;30;20052;-82
2024/03/17 13:28:31;;;;;;;1.35;0.50;;;;;;;;;;4738480;30;20044;-83
2024/03/17 13:31:01;;;;;;;1.60;0.40;;;;;;;;;;4739413;30;20060;-81
2024/03/17 13:33:29;;;;;;;1.20;1.00;;;;;;;;;;4738698;30;20389;-81
2024/03/17 13:35:57;;;;;;;1.67;0.70;;;;;;;;;;4738095;30;20055;-81
2024/03/17 13:38:25;;;;;;;2.75;0.70;;;;;;;;;;4737355;30;20500;-79
2024/03/17 13:40:54;;;;;;;1.30;0.65;;;;;;;;;;4721424;30;20040;-79
2024/03/17 13:43:22;;;;;;;2.95;1.25;;;;;;;;;;4720211;30;20056;-79
2024/03/17 13:45:50;;;;;;;1.25;0.50;;;;;;;;;;4719987;30;20052;-80
2024/03/17 13:48:18;;;;;;;1.42;0.65;;;;;;;;;;4718413;30;20052;-81
2024/03/17 13:50:47;;;;;;;1.42;0.60;;;;;;;;;;4720837;30;20065;-80
2024/03/17 13:53:16;;;;;;;1.85;0.57;;;;;;;;;;4721593;30;20060;-80
2024/03/17 13:55:46;;;;;;;1.52;0.75;;;;;;;;;;4720519;30;20044;-80
2024/03/17 13:58:14;;;;;;;1.25;0.70;;;;;;;;;;4720267;30;20060;-80
2024/03/17 14:00:43;;;;;;;0.95;0.57;;;;;;;;;;4720516;30;20056;-80
2024/03/17 14:03:11;;;;;;;1.60;0.63;;;;;;;;;;4720310;30;20120;-80
2024/03/17 14:05:41;;;;;;;3.03;0.70;;;;;;;;;;4719773;30;20060;-79
2024/03/17 14:08:09;;;;;;;1.48;1.10;;;;;;;;;;4719325;30;20420;-83
2024/03/17 14:10:37;;;;;;;1.00;0.40;;;;;;;;;;4719736;30;20569;-82
2024/03/17 14:13:07;;;;;;;6.65;0.60;;;;;;;;;;4718059;30;20061;-80
2024/03/17 14:15:36;;;;;;;2.05;0.82;;;;;;;;;;4719480;30;20057;-81
2024/03/17 14:18:04;;;;;;;1.35;0.70;;;;;;;;;;4719934;30;20049;-81
2024/03/17 14:20:32;;;;;;;1.48;0.80;;;;;;;;;;4719408;30;20126;-82
2024/03/17 14:23:03;;;;;;;1.45;0.65;;;;;;;;;;4717612;30;20071;-81
2024/03/17 14:25:31;;;;;;;1.92;0.70;;;;;;;;;;4720038;30;20044;-82
2024/03/17 14:28:00;;;;;;;1.58;0.75;;;;;;;;;;4719449;30;20505;-81
2024/03/17 14:30:28;;;;;;;2.83;0.68;;;;;;;;;;4719578;30;20057;-82
2024/03/17 14:32:56;;;;;;;2.95;0.65;;;;;;;;;;4705371;30;20056;-80
2024/03/17 14:35:27;;;;;;;2.88;0.93;;;;;;;;;;4732502;30;20055;-82
2024/03/17 14:37:58;;;;;;;3.08;1.50;;;;;;;;;;4738217;30;20400;-79
2024/03/17 14:40:29;;;;;;;0.85;0.40;;;;;;;;;;4738160;30;20051;-82
2024/03/17 14:42:58;;;;;;;;;;;;;;;;;;4738057;30;20048;-81
2024/03/17 14:45:26;;;;;;;1.20;0.70;;;;;;;;;;4722562;30;20397;-80
2024/03/17 14:47:54;;;;;;;1.88;0.60;;;;;;;;;;4738002;30;20052;-81
2024/03/17 14:50:23;;;;;;;1.50;0.70;;;;;;;;;;4737649;30;20060;-82
2024/03/17 14:52:51;;;;;;;1.25;0.55;;;;;;;;;;4737575;30;20067;-82
2024/03/17 14:55:19;;;;;;;1.25;0.80;;;;;;;;;;4737450;30;20473;-80
2024/03/17 14:57:48;;;;;;;2.00;0.55;;;;;;;;;;4737400;30;20048;-80
2024/03/17 15:00:18;;;;;;;1.35;0.60;;;;;;;;;;4737402;30;20052;-80
2024/03/17 15:02:51;;;;;;;1.48;0.80;;;;;;;;;;4737101;30;20048;-80
2024/03/17 15:05:21;;;;;;;1.67;0.90;;;;;;;;;;4737276;30;20060;-81
2024/03/17 15:07:53;;;;;;;1.77;0.90;;;;;;;;;;4737054;30;20048;-81